sensor_id;sensor_type;location;lat;lon;timestamp;temperature;humidity
79698;SHT31;69168;42.708;23.286;2023-12-20T00:01:31;1.89;76.40
79698;SHT31;69168;42.708;23.286;2023-12-20T00:03:57;2.04;76.83
79698;SHT31;69168;42.708;23.286;2023-12-20T00:06:22;1.91;76.97
79698;SHT31;69168;42.708;23.286;2023-12-20T00:08:48;1.93;77.60
79698;SHT31;69168;42.708;23.286;2023-12-20T00:11:13;1.99;77.54
79698;SHT31;69168;42.708;23.286;2023-12-20T00:13:39;1.93;77.64
79698;SHT31;69168;42.708;23.286;2023-12-20T00:16:04;1.85;78.23
79698;SHT31;69168;42.708;23.286;2023-12-20T00:18:30;1.85;78.48
79698;SHT31;69168;42.708;23.286;2023-12-20T00:20:55;1.85;77.67
79698;SHT31;69168;42.708;23.286;2023-12-20T00:23:21;1.93;77.25
79698;SHT31;69168;42.708;23.286;2023-12-20T00:25:48;1.78;77.20
79698;SHT31;69168;42.708;23.286;2023-12-20T00:28:14;1.77;77.07
79698;SHT31;69168;42.708;23.286;2023-12-20T00:30:43;1.63;76.96
79698;SHT31;69168;42.708;23.286;2023-12-20T00:33:09;1.71;76.26
79698;SHT31;69168;42.708;23.286;2023-12-20T00:35:34;1.67;76.36
79698;SHT31;69168;42.708;23.286;2023-12-20T00:38:00;1.68;76.03
79698;SHT31;69168;42.708;23.286;2023-12-20T00:40:25;1.66;75.81
79698;SHT31;69168;42.708;23.286;2023-12-20T00:42:51;1.75;76.46
79698;SHT31;69168;42.708;23.286;2023-12-20T00:45:16;1.66;76.17
79698;SHT31;69168;42.708;23.286;2023-12-20T00:47:42;1.59;76.63
79698;SHT31;69168;42.708;23.286;2023-12-20T00:50:08;1.60;76.86
79698;SHT31;69168;42.708;23.286;2023-12-20T00:52:34;1.56;76.77
79698;SHT31;69168;42.708;23.286;2023-12-20T00:55:00;1.53;76.90
79698;SHT31;69168;42.708;23.286;2023-12-20T00:57:25;1.44;77.05
79698;SHT31;69168;42.708;23.286;2023-12-20T00:59:51;1.50;77.37
79698;SHT31;69168;42.708;23.286;2023-12-20T01:02:16;1.49;77.36
79698;SHT31;69168;42.708;23.286;2023-12-20T01:04:42;1.53;76.11
79698;SHT31;69168;42.708;23.286;2023-12-20T01:07:07;1.59;76.41
79698;SHT31;69168;42.708;23.286;2023-12-20T01:09:33;1.51;76.17
79698;SHT31;69168;42.708;23.286;2023-12-20T01:11:59;1.56;75.52
79698;SHT31;69168;42.708;23.286;2023-12-20T01:14:24;1.54;75.16
79698;SHT31;69168;42.708;23.286;2023-12-20T01:16:50;1.47;75.62
79698;SHT31;69168;42.708;23.286;2023-12-20T01:19:15;1.47;75.65
79698;SHT31;69168;42.708;23.286;2023-12-20T01:21:41;1.49;74.85
79698;SHT31;69168;42.708;23.286;2023-12-20T01:24:07;1.57;75.41
79698;SHT31;69168;42.708;23.286;2023-12-20T01:26:32;1.46;75.90
79698;SHT31;69168;42.708;23.286;2023-12-20T01:28:58;1.33;76.50
79698;SHT31;69168;42.708;23.286;2023-12-20T01:31:23;1.32;76.71
79698;SHT31;69168;42.708;23.286;2023-12-20T01:33:49;1.32;76.48
79698;SHT31;69168;42.708;23.286;2023-12-20T01:36:14;1.33;76.68
79698;SHT31;69168;42.708;23.286;2023-12-20T01:38:40;1.28;76.56
79698;SHT31;69168;42.708;23.286;2023-12-20T01:41:05;1.11;76.30
79698;SHT31;69168;42.708;23.286;2023-12-20T01:43:31;1.21;75.81
79698;SHT31;69168;42.708;23.286;2023-12-20T01:46:00;1.09;76.46
79698;SHT31;69168;42.708;23.286;2023-12-20T01:48:26;1.11;77.61
79698;SHT31;69168;42.708;23.286;2023-12-20T01:50:53;1.18;77.01
79698;SHT31;69168;42.708;23.286;2023-12-20T01:53:21;1.13;77.33
79698;SHT31;69168;42.708;23.286;2023-12-20T01:55:50;1.09;77.81
79698;SHT31;69168;42.708;23.286;2023-12-20T01:58:18;0.98;78.62
79698;SHT31;69168;42.708;23.286;2023-12-20T02:00:44;0.98;79.21
79698;SHT31;69168;42.708;23.286;2023-12-20T02:03:09;0.94;78.57
79698;SHT31;69168;42.708;23.286;2023-12-20T02:05:35;0.80;78.34
79698;SHT31;69168;42.708;23.286;2023-12-20T02:08:02;0.75;78.28
79698;SHT31;69168;42.708;23.286;2023-12-20T02:10:28;0.89;78.06
79698;SHT31;69168;42.708;23.286;2023-12-20T02:12:54;0.67;78.07
79698;SHT31;69168;42.708;23.286;2023-12-20T02:15:20;0.60;78.46
79698;SHT31;69168;42.708;23.286;2023-12-20T02:17:47;0.71;78.82
79698;SHT31;69168;42.708;23.286;2023-12-20T02:20:13;0.54;80.26
79698;SHT31;69168;42.708;23.286;2023-12-20T02:22:39;0.68;80.49
79698;SHT31;69168;42.708;23.286;2023-12-20T02:25:05;0.73;80.58
79698;SHT31;69168;42.708;23.286;2023-12-20T02:27:31;0.87;79.76
79698;SHT31;69168;42.708;23.286;2023-12-20T02:29:56;0.89;79.26
79698;SHT31;69168;42.708;23.286;2023-12-20T02:32:24;0.89;79.58
79698;SHT31;69168;42.708;23.286;2023-12-20T02:34:53;0.92;79.71
79698;SHT31;69168;42.708;23.286;2023-12-20T02:37:18;0.75;79.65
79698;SHT31;69168;42.708;23.286;2023-12-20T02:39:44;0.81;79.96
79698;SHT31;69168;42.708;23.286;2023-12-20T02:42:09;0.71;80.20
79698;SHT31;69168;42.708;23.286;2023-12-20T02:44:35;0.88;79.31
79698;SHT31;69168;42.708;23.286;2023-12-20T02:47:02;0.88;79.28
79698;SHT31;69168;42.708;23.286;2023-12-20T02:49:27;0.73;79.10
79698;SHT31;69168;42.708;23.286;2023-12-20T02:51:53;0.68;80.02
79698;SHT31;69168;42.708;23.286;2023-12-20T02:54:18;0.78;80.01
79698;SHT31;69168;42.708;23.286;2023-12-20T02:56:44;0.77;80.33
79698;SHT31;69168;42.708;23.286;2023-12-20T02:59:09;0.75;80.06
79698;SHT31;69168;42.708;23.286;2023-12-20T03:01:35;0.80;80.41
79698;SHT31;69168;42.708;23.286;2023-12-20T03:04:01;0.67;80.22
79698;SHT31;69168;42.708;23.286;2023-12-20T03:06:26;0.43;80.80
79698;SHT31;69168;42.708;23.286;2023-12-20T03:08:52;0.53;80.80
79698;SHT31;69168;42.708;23.286;2023-12-20T03:11:18;0.25;81.06
79698;SHT31;69168;42.708;23.286;2023-12-20T03:13:43;0.47;80.96
79698;SHT31;69168;42.708;23.286;2023-12-20T03:16:09;0.36;80.80
79698;SHT31;69168;42.708;23.286;2023-12-20T03:18:35;0.46;80.95
79698;SHT31;69168;42.708;23.286;2023-12-20T03:21:01;0.61;80.13
79698;SHT31;69168;42.708;23.286;2023-12-20T03:23:26;0.30;80.56
79698;SHT31;69168;42.708;23.286;2023-12-20T03:25:52;0.16;80.85
79698;SHT31;69168;42.708;23.286;2023-12-20T03:28:18;0.25;81.20
79698;SHT31;69168;42.708;23.286;2023-12-20T03:30:44;0.18;80.71
79698;SHT31;69168;42.708;23.286;2023-12-20T03:33:10;0.06;80.56
79698;SHT31;69168;42.708;23.286;2023-12-20T03:35:36;0.18;80.46
79698;SHT31;69168;42.708;23.286;2023-12-20T03:38:02;0.26;79.87
79698;SHT31;69168;42.708;23.286;2023-12-20T03:40:27;0.29;80.05
79698;SHT31;69168;42.708;23.286;2023-12-20T03:42:53;0.40;79.98
79698;SHT31;69168;42.708;23.286;2023-12-20T03:45:18;0.40;79.64
79698;SHT31;69168;42.708;23.286;2023-12-20T03:47:44;0.28;79.49
79698;SHT31;69168;42.708;23.286;2023-12-20T03:50:09;0.16;79.42
79698;SHT31;69168;42.708;23.286;2023-12-20T03:52:35;0.20;79.66
79698;SHT31;69168;42.708;23.286;2023-12-20T03:55:00;0.16;79.68
79698;SHT31;69168;42.708;23.286;2023-12-20T03:57:26;0.03;80.06
79698;SHT31;69168;42.708;23.286;2023-12-20T03:59:51;0.18;79.59
79698;SHT31;69168;42.708;23.286;2023-12-20T04:02:17;-0.08;80.47
79698;SHT31;69168;42.708;23.286;2023-12-20T04:04:43;0.03;80.28
79698;SHT31;69168;42.708;23.286;2023-12-20T04:07:09;0.13;80.58
79698;SHT31;69168;42.708;23.286;2023-12-20T04:09:34;0.22;79.92
79698;SHT31;69168;42.708;23.286;2023-12-20T04:12:00;0.26;80.03
79698;SHT31;69168;42.708;23.286;2023-12-20T04:14:25;0.18;80.12
79698;SHT31;69168;42.708;23.286;2023-12-20T04:16:51;0.16;80.01
79698;SHT31;69168;42.708;23.286;2023-12-20T04:19:16;0.12;80.42
79698;SHT31;69168;42.708;23.286;2023-12-20T04:21:42;0.01;80.36
79698;SHT31;69168;42.708;23.286;2023-12-20T04:24:07;0.12;80.15
79698;SHT31;69168;42.708;23.286;2023-12-20T04:26:33;0.12;79.79
79698;SHT31;69168;42.708;23.286;2023-12-20T04:28:59;0.26;79.12
79698;SHT31;69168;42.708;23.286;2023-12-20T04:31:24;0.13;78.99
79698;SHT31;69168;42.708;23.286;2023-12-20T04:33:50;0.11;79.33
79698;SHT31;69168;42.708;23.286;2023-12-20T04:36:15;0.09;79.58
79698;SHT31;69168;42.708;23.286;2023-12-20T04:38:41;-0.06;79.73
79698;SHT31;69168;42.708;23.286;2023-12-20T04:41:06;0.16;79.75
79698;SHT31;69168;42.708;23.286;2023-12-20T04:43:32;-0.15;80.12
79698;SHT31;69168;42.708;23.286;2023-12-20T04:45:57;-0.16;80.39
79698;SHT31;69168;42.708;23.286;2023-12-20T04:48:23;-0.30;80.85
79698;SHT31;69168;42.708;23.286;2023-12-20T04:50:48;-0.32;81.00
79698;SHT31;69168;42.708;23.286;2023-12-20T04:53:14;-0.30;80.81
79698;SHT31;69168;42.708;23.286;2023-12-20T04:55:39;-0.12;80.23
79698;SHT31;69168;42.708;23.286;2023-12-20T04:58:23;0.05;79.71
79698;SHT31;69168;42.708;23.286;2023-12-20T05:00:49;-0.23;80.39
79698;SHT31;69168;42.708;23.286;2023-12-20T05:03:14;-0.37;80.76
79698;SHT31;69168;42.708;23.286;2023-12-20T05:05:40;-0.43;81.14
79698;SHT31;69168;42.708;23.286;2023-12-20T05:08:06;-0.50;80.95
79698;SHT31;69168;42.708;23.286;2023-12-20T05:10:31;-0.47;81.02
79698;SHT31;69168;42.708;23.286;2023-12-20T05:12:57;-0.26;80.42
79698;SHT31;69168;42.708;23.286;2023-12-20T05:15:22;-0.26;79.96
79698;SHT31;69168;42.708;23.286;2023-12-20T05:17:48;-0.37;80.02
79698;SHT31;69168;42.708;23.286;2023-12-20T05:20:13;-0.44;80.24
79698;SHT31;69168;42.708;23.286;2023-12-20T05:22:41;-0.25;80.03
79698;SHT31;69168;42.708;23.286;2023-12-20T05:25:06;-0.32;79.93
79698;SHT31;69168;42.708;23.286;2023-12-20T05:27:32;-0.25;80.10
79698;SHT31;69168;42.708;23.286;2023-12-20T05:29:57;-0.19;80.03
79698;SHT31;69168;42.708;23.286;2023-12-20T05:32:23;-0.10;79.69
79698;SHT31;69168;42.708;23.286;2023-12-20T05:34:49;0.09;79.35
79698;SHT31;69168;42.708;23.286;2023-12-20T05:37:14;0.06;79.08
79698;SHT31;69168;42.708;23.286;2023-12-20T05:39:40;-0.08;79.24
79698;SHT31;69168;42.708;23.286;2023-12-20T05:42:06;-0.03;79.04
79698;SHT31;69168;42.708;23.286;2023-12-20T05:44:31;-0.02;79.46
79698;SHT31;69168;42.708;23.286;2023-12-20T05:46:57;0.06;79.10
79698;SHT31;69168;42.708;23.286;2023-12-20T05:49:22;-0.26;80.02
79698;SHT31;69168;42.708;23.286;2023-12-20T05:51:48;-0.19;80.29
79698;SHT31;69168;42.708;23.286;2023-12-20T05:54:14;0.01;79.53
79698;SHT31;69168;42.708;23.286;2023-12-20T05:56:39;-0.08;79.54
79698;SHT31;69168;42.708;23.286;2023-12-20T05:59:05;-0.32;79.94
79698;SHT31;69168;42.708;23.286;2023-12-20T06:01:30;-0.27;80.42
79698;SHT31;69168;42.708;23.286;2023-12-20T06:03:56;-0.44;80.95
79698;SHT31;69168;42.708;23.286;2023-12-20T06:06:23;-0.53;81.24
79698;SHT31;69168;42.708;23.286;2023-12-20T06:08:49;-0.56;81.38
79698;SHT31;69168;42.708;23.286;2023-12-20T06:11:14;-0.47;81.71
79698;SHT31;69168;42.708;23.286;2023-12-20T06:13:40;-0.64;82.08
79698;SHT31;69168;42.708;23.286;2023-12-20T06:16:06;-0.68;82.32
79698;SHT31;69168;42.708;23.286;2023-12-20T06:18:32;-0.68;82.25
79698;SHT31;69168;42.708;23.286;2023-12-20T06:20:58;-0.65;81.66
79698;SHT31;69168;42.708;23.286;2023-12-20T06:23:23;-0.60;82.13
79698;SHT31;69168;42.708;23.286;2023-12-20T06:25:49;-0.47;81.24
79698;SHT31;69168;42.708;23.286;2023-12-20T06:28:14;-0.56;81.61
79698;SHT31;69168;42.708;23.286;2023-12-20T06:30:40;-0.41;80.78
79698;SHT31;69168;42.708;23.286;2023-12-20T06:33:05;-0.25;81.24
79698;SHT31;69168;42.708;23.286;2023-12-20T06:35:32;-0.09;80.36
79698;SHT31;69168;42.708;23.286;2023-12-20T06:37:58;0.20;78.53
79698;SHT31;69168;42.708;23.286;2023-12-20T06:40:23;-0.15;79.91
79698;SHT31;69168;42.708;23.286;2023-12-20T06:42:49;-0.40;80.87
79698;SHT31;69168;42.708;23.286;2023-12-20T06:45:14;-0.09;80.56
79698;SHT31;69168;42.708;23.286;2023-12-20T06:47:40;-0.67;81.02
79698;SHT31;69168;42.708;23.286;2023-12-20T06:50:06;-0.36;81.28
79698;SHT31;69168;42.708;23.286;2023-12-20T06:52:33;-0.20;81.11
79698;SHT31;69168;42.708;23.286;2023-12-20T06:54:59;-0.03;80.44
79698;SHT31;69168;42.708;23.286;2023-12-20T06:57:25;0.01;79.95
79698;SHT31;69168;42.708;23.286;2023-12-20T06:59:51;-0.02;79.86
79698;SHT31;69168;42.708;23.286;2023-12-20T07:02:17;0.18;79.10
79698;SHT31;69168;42.708;23.286;2023-12-20T07:04:43;-0.09;79.44
79698;SHT31;69168;42.708;23.286;2023-12-20T07:07:08;-0.16;80.23
79698;SHT31;69168;42.708;23.286;2023-12-20T07:09:34;-0.13;80.27
79698;SHT31;69168;42.708;23.286;2023-12-20T07:11:59;-0.06;79.93
79698;SHT31;69168;42.708;23.286;2023-12-20T07:14:25;-0.08;79.96
79698;SHT31;69168;42.708;23.286;2023-12-20T07:16:51;0.06;79.98
79698;SHT31;69168;42.708;23.286;2023-12-20T07:19:16;0.15;79.47
79698;SHT31;69168;42.708;23.286;2023-12-20T07:21:42;0.33;78.69
79698;SHT31;69168;42.708;23.286;2023-12-20T07:24:07;0.30;78.72
79698;SHT31;69168;42.708;23.286;2023-12-20T07:26:33;0.39;78.75
79698;SHT31;69168;42.708;23.286;2023-12-20T07:28:59;0.38;78.79
79698;SHT31;69168;42.708;23.286;2023-12-20T07:31:25;0.36;79.28
79698;SHT31;69168;42.708;23.286;2023-12-20T07:33:50;0.40;78.73
79698;SHT31;69168;42.708;23.286;2023-12-20T07:36:16;0.16;79.20
79698;SHT31;69168;42.708;23.286;2023-12-20T07:38:41;0.05;79.34
79698;SHT31;69168;42.708;23.286;2023-12-20T07:41:10;-0.05;79.85
79698;SHT31;69168;42.708;23.286;2023-12-20T07:43:36;-0.03;79.86
79698;SHT31;69168;42.708;23.286;2023-12-20T07:46:08;-0.13;80.19
79698;SHT31;69168;42.708;23.286;2023-12-20T07:48:37;0.22;79.65
79698;SHT31;69168;42.708;23.286;2023-12-20T07:51:03;0.50;78.87
79698;SHT31;69168;42.708;23.286;2023-12-20T07:53:30;0.67;78.31
79698;SHT31;69168;42.708;23.286;2023-12-20T07:55:55;0.66;78.11
79698;SHT31;69168;42.708;23.286;2023-12-20T07:58:21;0.71;77.90
79698;SHT31;69168;42.708;23.286;2023-12-20T08:00:47;0.64;77.74
79698;SHT31;69168;42.708;23.286;2023-12-20T08:03:13;0.61;78.73
79698;SHT31;69168;42.708;23.286;2023-12-20T08:05:38;0.68;78.46
79698;SHT31;69168;42.708;23.286;2023-12-20T08:08:06;0.81;78.23
79698;SHT31;69168;42.708;23.286;2023-12-20T08:10:31;0.81;78.04
79698;SHT31;69168;42.708;23.286;2023-12-20T08:12:57;0.91;77.91
79698;SHT31;69168;42.708;23.286;2023-12-20T08:15:22;0.96;77.99
79698;SHT31;69168;42.708;23.286;2023-12-20T08:17:49;1.05;77.91
79698;SHT31;69168;42.708;23.286;2023-12-20T08:20:16;1.11;77.73
79698;SHT31;69168;42.708;23.286;2023-12-20T08:22:42;1.21;77.12
79698;SHT31;69168;42.708;23.286;2023-12-20T08:25:08;1.18;77.50
79698;SHT31;69168;42.708;23.286;2023-12-20T08:27:40;1.09;77.49
79698;SHT31;69168;42.708;23.286;2023-12-20T08:30:08;1.19;79.47
79698;SHT31;69168;42.708;23.286;2023-12-20T08:32:34;1.51;78.36
79698;SHT31;69168;42.708;23.286;2023-12-20T08:34:59;1.70;78.15
79698;SHT31;69168;42.708;23.286;2023-12-20T08:37:25;1.44;77.75
79698;SHT31;69168;42.708;23.286;2023-12-20T08:39:50;1.46;77.38
79698;SHT31;69168;42.708;23.286;2023-12-20T08:42:16;1.43;78.82
79698;SHT31;69168;42.708;23.286;2023-12-20T08:44:41;1.44;78.18
79698;SHT31;69168;42.708;23.286;2023-12-20T08:47:07;1.54;78.59
79698;SHT31;69168;42.708;23.286;2023-12-20T08:49:33;1.47;78.01
79698;SHT31;69168;42.708;23.286;2023-12-20T08:51:58;1.28;77.97
79698;SHT31;69168;42.708;23.286;2023-12-20T08:54:24;1.21;77.75
79698;SHT31;69168;42.708;23.286;2023-12-20T08:56:52;1.22;77.73
79698;SHT31;69168;42.708;23.286;2023-12-20T08:59:18;1.09;78.35
79698;SHT31;69168;42.708;23.286;2023-12-20T09:01:44;1.11;78.50
79698;SHT31;69168;42.708;23.286;2023-12-20T09:04:09;1.15;78.87
79698;SHT31;69168;42.708;23.286;2023-12-20T09:06:35;1.19;78.79
79698;SHT31;69168;42.708;23.286;2023-12-20T09:09:01;1.18;79.08
79698;SHT31;69168;42.708;23.286;2023-12-20T09:11:26;1.29;78.88
79698;SHT31;69168;42.708;23.286;2023-12-20T09:13:52;1.25;78.78
79698;SHT31;69168;42.708;23.286;2023-12-20T09:16:17;1.25;78.43
79698;SHT31;69168;42.708;23.286;2023-12-20T09:18:43;1.32;78.42
79698;SHT31;69168;42.708;23.286;2023-12-20T09:21:09;1.29;78.38
79698;SHT31;69168;42.708;23.286;2023-12-20T09:23:34;1.40;78.62
79698;SHT31;69168;42.708;23.286;2023-12-20T09:26:02;1.81;77.66
79698;SHT31;69168;42.708;23.286;2023-12-20T09:28:27;1.67;77.79
79698;SHT31;69168;42.708;23.286;2023-12-20T09:30:53;1.63;78.39
79698;SHT31;69168;42.708;23.286;2023-12-20T09:33:19;1.73;78.69
79698;SHT31;69168;42.708;23.286;2023-12-20T09:35:44;1.75;78.35
79698;SHT31;69168;42.708;23.286;2023-12-20T09:38:10;1.88;78.03
79698;SHT31;69168;42.708;23.286;2023-12-20T09:40:36;1.78;78.24
79698;SHT31;69168;42.708;23.286;2023-12-20T09:43:04;1.56;78.61
79698;SHT31;69168;42.708;23.286;2023-12-20T09:45:31;1.59;78.74
79698;SHT31;69168;42.708;23.286;2023-12-20T09:47:57;1.78;78.81
79698;SHT31;69168;42.708;23.286;2023-12-20T09:50:23;1.78;78.60
79698;SHT31;69168;42.708;23.286;2023-12-20T09:52:51;1.88;78.67
79698;SHT31;69168;42.708;23.286;2023-12-20T09:55:20;2.15;77.56
79698;SHT31;69168;42.708;23.286;2023-12-20T09:57:51;2.11;77.73
79698;SHT31;69168;42.708;23.286;2023-12-20T10:00:17;2.39;76.66
79698;SHT31;69168;42.708;23.286;2023-12-20T10:02:55;2.05;77.91
79698;SHT31;69168;42.708;23.286;2023-12-20T10:05:29;2.11;77.79
79698;SHT31;69168;42.708;23.286;2023-12-20T10:07:55;2.51;77.01
79698;SHT31;69168;42.708;23.286;2023-12-20T10:10:20;2.36;77.20
79698;SHT31;69168;42.708;23.286;2023-12-20T10:13:01;2.57;76.69
79698;SHT31;69168;42.708;23.286;2023-12-20T10:15:27;2.73;77.33
79698;SHT31;69168;42.708;23.286;2023-12-20T10:17:53;3.09;76.43
79698;SHT31;69168;42.708;23.286;2023-12-20T10:20:20;3.49;75.92
79698;SHT31;69168;42.708;23.286;2023-12-20T10:22:49;3.53;75.89
79698;SHT31;69168;42.708;23.286;2023-12-20T10:25:15;3.99;75.06
79698;SHT31;69168;42.708;23.286;2023-12-20T10:27:41;4.28;74.80
79698;SHT31;69168;42.708;23.286;2023-12-20T10:30:06;4.43;74.58
79698;SHT31;69168;42.708;23.286;2023-12-20T10:32:35;4.63;73.00
79698;SHT31;69168;42.708;23.286;2023-12-20T10:35:00;4.84;72.09
79698;SHT31;69168;42.708;23.286;2023-12-20T10:37:27;4.92;72.17
79698;SHT31;69168;42.708;23.286;2023-12-20T10:39:54;4.95;72.42
79698;SHT31;69168;42.708;23.286;2023-12-20T10:42:26;5.09;72.32
79698;SHT31;69168;42.708;23.286;2023-12-20T10:44:52;5.16;71.98
79698;SHT31;69168;42.708;23.286;2023-12-20T10:47:19;5.39;70.86
79698;SHT31;69168;42.708;23.286;2023-12-20T10:49:46;5.43;71.38
79698;SHT31;69168;42.708;23.286;2023-12-20T10:52:12;5.33;71.74
79698;SHT31;69168;42.708;23.286;2023-12-20T10:54:41;5.48;71.52
79698;SHT31;69168;42.708;23.286;2023-12-20T10:57:07;5.39;71.45
79698;SHT31;69168;42.708;23.286;2023-12-20T10:59:33;5.66;70.95
79698;SHT31;69168;42.708;23.286;2023-12-20T11:02:03;5.81;70.25
79698;SHT31;69168;42.708;23.286;2023-12-20T11:04:53;5.74;70.70
79698;SHT31;69168;42.708;23.286;2023-12-20T11:07:33;5.37;70.72
79698;SHT31;69168;42.708;23.286;2023-12-20T11:12:47;4.91;71.96
79698;SHT31;69168;42.708;23.286;2023-12-20T11:15:14;4.91;71.52
79698;SHT31;69168;42.708;23.286;2023-12-20T11:17:40;4.70;71.73
79698;SHT31;69168;42.708;23.286;2023-12-20T11:20:10;4.57;71.99
79698;SHT31;69168;42.708;23.286;2023-12-20T11:22:36;4.50;72.27
79698;SHT31;69168;42.708;23.286;2023-12-20T11:25:07;4.47;72.35
79698;SHT31;69168;42.708;23.286;2023-12-20T11:27:40;4.46;73.97
79698;SHT31;69168;42.708;23.286;2023-12-20T11:30:06;4.58;73.87
79698;SHT31;69168;42.708;23.286;2023-12-20T11:32:34;4.44;73.35
79698;SHT31;69168;42.708;23.286;2023-12-20T11:37:38;4.81;73.56
79698;SHT31;69168;42.708;23.286;2023-12-20T11:40:11;4.96;72.81
79698;SHT31;69168;42.708;23.286;2023-12-20T11:42:46;5.30;72.43
79698;SHT31;69168;42.708;23.286;2023-12-20T11:45:15;5.37;70.92
79698;SHT31;69168;42.708;23.286;2023-12-20T11:47:49;5.23;71.24
79698;SHT31;69168;42.708;23.286;2023-12-20T11:50:22;5.23;71.22
79698;SHT31;69168;42.708;23.286;2023-12-20T11:52:49;5.20;70.75
79698;SHT31;69168;42.708;23.286;2023-12-20T11:55:15;5.29;70.48
79698;SHT31;69168;42.708;23.286;2023-12-20T11:57:42;5.23;71.02
79698;SHT31;69168;42.708;23.286;2023-12-20T12:00:08;5.30;71.13
79698;SHT31;69168;42.708;23.286;2023-12-20T12:02:33;5.19;70.88
79698;SHT31;69168;42.708;23.286;2023-12-20T12:04:59;5.18;71.17
79698;SHT31;69168;42.708;23.286;2023-12-20T12:07:25;5.26;71.13
79698;SHT31;69168;42.708;23.286;2023-12-20T12:09:51;5.46;70.53
79698;SHT31;69168;42.708;23.286;2023-12-20T12:12:17;5.73;69.62
79698;SHT31;69168;42.708;23.286;2023-12-20T12:14:48;6.06;68.73
79698;SHT31;69168;42.708;23.286;2023-12-20T12:17:14;5.97;69.18
79698;SHT31;69168;42.708;23.286;2023-12-20T12:19:41;5.94;69.88
79698;SHT31;69168;42.708;23.286;2023-12-20T12:22:12;6.18;69.33
79698;SHT31;69168;42.708;23.286;2023-12-20T12:24:43;6.34;68.63
79698;SHT31;69168;42.708;23.286;2023-12-20T12:27:09;6.44;68.27
79698;SHT31;69168;42.708;23.286;2023-12-20T12:29:36;6.51;67.86
79698;SHT31;69168;42.708;23.286;2023-12-20T12:32:06;6.44;68.40
79698;SHT31;69168;42.708;23.286;2023-12-20T12:34:32;6.73;67.93
79698;SHT31;69168;42.708;23.286;2023-12-20T12:36:59;6.85;67.14
79698;SHT31;69168;42.708;23.286;2023-12-20T12:39:25;6.84;67.18
79698;SHT31;69168;42.708;23.286;2023-12-20T12:41:51;6.80;67.99
79698;SHT31;69168;42.708;23.286;2023-12-20T12:44:16;7.02;67.04
79698;SHT31;69168;42.708;23.286;2023-12-20T12:46:44;6.81;67.30
79698;SHT31;69168;42.708;23.286;2023-12-20T12:49:09;6.66;67.80
79698;SHT31;69168;42.708;23.286;2023-12-20T12:51:35;6.92;67.29
79698;SHT31;69168;42.708;23.286;2023-12-20T12:54:00;6.77;66.90
79698;SHT31;69168;42.708;23.286;2023-12-20T12:56:26;6.50;67.74
79698;SHT31;69168;42.708;23.286;2023-12-20T12:58:52;6.29;68.56
79698;SHT31;69168;42.708;23.286;2023-12-20T13:01:17;6.13;68.70
79698;SHT31;69168;42.708;23.286;2023-12-20T13:03:43;6.18;68.64
79698;SHT31;69168;42.708;23.286;2023-12-20T13:06:08;6.18;68.33
79698;SHT31;69168;42.708;23.286;2023-12-20T13:08:34;6.22;68.52
79698;SHT31;69168;42.708;23.286;2023-12-20T13:11:00;6.09;68.86
79698;SHT31;69168;42.708;23.286;2023-12-20T13:13:26;5.79;69.40
79698;SHT31;69168;42.708;23.286;2023-12-20T13:15:52;5.75;70.20
79698;SHT31;69168;42.708;23.286;2023-12-20T13:18:21;5.75;69.87
79698;SHT31;69168;42.708;23.286;2023-12-20T13:20:47;5.47;70.43
79698;SHT31;69168;42.708;23.286;2023-12-20T13:23:13;5.48;70.68
79698;SHT31;69168;42.708;23.286;2023-12-20T13:25:39;5.50;70.06
79698;SHT31;69168;42.708;23.286;2023-12-20T13:28:05;5.22;70.78
79698;SHT31;69168;42.708;23.286;2023-12-20T13:30:31;5.01;71.22
79698;SHT31;69168;42.708;23.286;2023-12-20T13:32:56;4.82;72.49
79698;SHT31;69168;42.708;23.286;2023-12-20T13:35:22;4.82;72.76
79698;SHT31;69168;42.708;23.286;2023-12-20T13:37:47;4.82;72.49
79698;SHT31;69168;42.708;23.286;2023-12-20T13:40:13;4.74;72.65
79698;SHT31;69168;42.708;23.286;2023-12-20T13:42:39;4.58;73.15
79698;SHT31;69168;42.708;23.286;2023-12-20T13:45:05;4.49;73.65
79698;SHT31;69168;42.708;23.286;2023-12-20T13:47:32;4.30;73.62
79698;SHT31;69168;42.708;23.286;2023-12-20T13:49:57;4.36;73.62
79698;SHT31;69168;42.708;23.286;2023-12-20T13:52:23;4.36;73.69
79698;SHT31;69168;42.708;23.286;2023-12-20T13:54:48;4.33;73.61
79698;SHT31;69168;42.708;23.286;2023-12-20T13:57:14;4.39;73.54
79698;SHT31;69168;42.708;23.286;2023-12-20T13:59:40;4.10;74.06
79698;SHT31;69168;42.708;23.286;2023-12-20T14:02:05;4.23;73.68
79698;SHT31;69168;42.708;23.286;2023-12-20T14:04:31;4.23;74.97
79698;SHT31;69168;42.708;23.286;2023-12-20T14:06:57;3.97;75.77
79698;SHT31;69168;42.708;23.286;2023-12-20T14:09:23;4.03;75.45
79698;SHT31;69168;42.708;23.286;2023-12-20T14:11:48;4.33;74.59
79698;SHT31;69168;42.708;23.286;2023-12-20T14:14:14;4.06;74.41
79698;SHT31;69168;42.708;23.286;2023-12-20T14:16:39;3.92;75.36
79698;SHT31;69168;42.708;23.286;2023-12-20T14:19:08;3.66;76.48
79698;SHT31;69168;42.708;23.286;2023-12-20T14:21:37;3.90;75.61
79698;SHT31;69168;42.708;23.286;2023-12-20T14:24:03;3.84;75.34
79698;SHT31;69168;42.708;23.286;2023-12-20T14:26:29;3.75;75.36
79698;SHT31;69168;42.708;23.286;2023-12-20T14:28:58;3.69;75.15
79698;SHT31;69168;42.708;23.286;2023-12-20T14:31:24;3.42;75.66
79698;SHT31;69168;42.708;23.286;2023-12-20T14:33:50;3.53;76.14
79698;SHT31;69168;42.708;23.286;2023-12-20T14:36:18;3.25;76.78
79698;SHT31;69168;42.708;23.286;2023-12-20T14:38:45;3.12;77.01
79698;SHT31;69168;42.708;23.286;2023-12-20T14:41:11;3.26;76.58
79698;SHT31;69168;42.708;23.286;2023-12-20T14:43:37;3.25;76.59
79698;SHT31;69168;42.708;23.286;2023-12-20T14:46:03;3.39;75.63
79698;SHT31;69168;42.708;23.286;2023-12-20T14:48:28;3.06;76.67
79698;SHT31;69168;42.708;23.286;2023-12-20T14:50:54;2.83;77.64
79698;SHT31;69168;42.708;23.286;2023-12-20T14:53:20;2.87;77.69
79698;SHT31;69168;42.708;23.286;2023-12-20T14:55:46;2.81;77.82
79698;SHT31;69168;42.708;23.286;2023-12-20T14:58:12;2.78;77.83
79698;SHT31;69168;42.708;23.286;2023-12-20T15:00:38;2.64;78.39
79698;SHT31;69168;42.708;23.286;2023-12-20T15:03:03;2.65;78.37
79698;SHT31;69168;42.708;23.286;2023-12-20T15:05:30;2.67;78.54
79698;SHT31;69168;42.708;23.286;2023-12-20T15:07:56;2.67;78.43
79698;SHT31;69168;42.708;23.286;2023-12-20T15:10:21;2.77;77.70
79698;SHT31;69168;42.708;23.286;2023-12-20T15:12:47;2.87;77.13
79698;SHT31;69168;42.708;23.286;2023-12-20T15:15:13;2.92;77.01
79698;SHT31;69168;42.708;23.286;2023-12-20T15:17:39;2.56;78.05
79698;SHT31;69168;42.708;23.286;2023-12-20T15:20:05;2.37;79.23
79698;SHT31;69168;42.708;23.286;2023-12-20T15:22:30;2.18;79.86
79698;SHT31;69168;42.708;23.286;2023-12-20T15:24:59;2.50;78.58
79698;SHT31;69168;42.708;23.286;2023-12-20T15:27:24;2.44;79.22